createdAt,value
2022-11-08T00:03:16.094Z,374.07
2022-11-08T00:08:23.276Z,373.74
2022-11-08T00:13:30.474Z,374.26
2022-11-08T00:18:37.665Z,374.44
2022-11-08T00:23:44.863Z,375.58
2022-11-08T00:28:52.055Z,375.38
2022-11-08T00:33:59.273Z,375.42
2022-11-08T00:39:06.542Z,375.13
2022-11-08T00:44:13.766Z,375.61
2022-11-08T00:49:20.991Z,376.24
2022-11-08T00:54:28.186Z,376.93
2022-11-08T00:59:35.424Z,377.23
2022-11-08T01:04:42.611Z,377.23
2022-11-08T01:09:49.844Z,377.23
2022-11-08T01:14:57.078Z,378.16
2022-11-08T01:20:04.201Z,377.68
2022-11-08T01:25:11.367Z,378.72
2022-11-08T01:30:18.564Z,378.65
2022-11-08T01:35:25.763Z,379.12
2022-11-08T01:40:33.185Z,379.21
2022-11-08T01:45:40.335Z,379.57
2022-11-08T01:50:47.552Z,380.61
2022-11-08T01:55:54.816Z,381.27
2022-11-08T02:01:02.100Z,381.22
2022-11-08T02:06:09.259Z,382.28
2022-11-08T02:11:16.428Z,382.33
2022-11-08T02:16:23.656Z,383.39
2022-11-08T02:21:30.891Z,383.76
2022-11-08T02:26:38.102Z,383.47
2022-11-08T02:31:45.257Z,383.02
2022-11-08T02:36:52.473Z,383.86
2022-11-08T02:41:59.717Z,383.79
2022-11-08T02:47:06.905Z,384.05
2022-11-08T02:52:14.111Z,384.48
2022-11-08T02:57:21.339Z,385.21
2022-11-08T03:02:28.652Z,384.48
2022-11-08T03:07:35.775Z,385.81
2022-11-08T03:12:43.144Z,385.25
2022-11-08T03:17:50.204Z,386.02
2022-11-08T03:22:57.437Z,387.28
2022-11-08T03:28:04.718Z,386.84
2022-11-08T03:33:11.949Z,386.55
2022-11-08T03:38:19.470Z,387.37
2022-11-08T03:43:26.370Z,387.29
2022-11-08T03:48:33.563Z,387.23
2022-11-08T03:53:40.878Z,387.36
2022-11-08T03:58:48.100Z,387.02
2022-11-08T04:03:55.218Z,388.18
2022-11-08T04:09:02.493Z,387.98
2022-11-08T04:14:09.710Z,387.96
2022-11-08T04:19:16.902Z,387.88
2022-11-08T04:24:24.107Z,387.93
2022-11-08T04:29:31.323Z,388.01
2022-11-08T04:34:38.502Z,388.51
2022-11-08T04:39:45.671Z,388.14
2022-11-08T04:44:52.919Z,388.57
2022-11-08T04:50:00.129Z,389.15
2022-11-08T04:55:07.326Z,388.67
2022-11-08T05:00:14.686Z,388.96
2022-11-08T05:05:21.753Z,389.04
2022-11-08T05:10:28.956Z,388.53
2022-11-08T05:15:36.226Z,389.26
2022-11-08T05:20:43.390Z,388.58
2022-11-08T05:25:50.571Z,389.16
2022-11-08T05:30:57.813Z,389.86
2022-11-08T05:36:06.332Z,389.99
2022-11-08T05:41:12.920Z,389.75
2022-11-08T05:46:20.330Z,389.89
2022-11-08T05:51:27.562Z,389.54
2022-11-08T05:56:34.852Z,390.01
2022-11-08T06:01:42.241Z,391.12
2022-11-08T06:06:49.369Z,390.49
2022-11-08T06:11:56.633Z,390.44
2022-11-08T06:17:03.915Z,391.21
2022-11-08T06:22:11.351Z,390.99
2022-11-08T06:27:18.571Z,390.97
2022-11-08T06:32:25.802Z,391.17
2022-11-08T06:37:33.020Z,391.68
2022-11-08T06:42:40.250Z,390.94
2022-11-08T06:47:47.531Z,391.53
2022-11-08T06:52:54.683Z,391.73
2022-11-08T06:58:01.870Z,392.52
2022-11-08T07:03:09.215Z,392.54
2022-11-08T07:08:22.282Z,393.43
2022-11-08T07:13:23.487Z,393.93
2022-11-08T07:18:30.825Z,393.79
2022-11-08T07:23:37.899Z,393.05
2022-11-08T07:28:45.120Z,391.61
2022-11-08T07:33:52.330Z,391.45
2022-11-08T07:39:03.832Z,391.39
2022-11-08T07:44:06.761Z,391.76
2022-11-08T07:49:14.047Z,391.49
2022-11-08T07:54:21.240Z,391.90
2022-11-08T07:59:28.394Z,391.72
2022-11-08T08:04:35.609Z,390.69
2022-11-08T08:09:42.841Z,389.74
2022-11-08T08:14:50.044Z,389.03
2022-11-08T08:19:57.297Z,388.27
2022-11-08T08:25:04.472Z,388.46
2022-11-08T08:30:11.698Z,388.15
2022-11-08T08:35:18.964Z,387.13
2022-11-08T08:40:26.323Z,386.43
2022-11-08T08:45:33.487Z,385.76
2022-11-08T08:50:40.769Z,384.78
2022-11-08T08:55:47.909Z,382.88
2022-11-08T09:06:02.326Z,382.17
2022-11-08T09:11:09.476Z,381.81
2022-11-08T09:16:16.746Z,381.54
2022-11-08T09:21:24.137Z,381.04
2022-11-08T09:26:31.242Z,380.93
2022-11-08T09:31:38.458Z,379.67
2022-11-08T09:36:45.739Z,378.55
2022-11-08T09:41:55.484Z,376.81
2022-11-08T09:47:00.225Z,376.63
2022-11-08T09:52:07.492Z,376.11
2022-11-08T09:57:14.612Z,375.94
2022-11-08T10:02:21.958Z,376.77
2022-11-08T10:07:29.221Z,377.36
2022-11-08T10:12:36.503Z,377.08
2022-11-08T10:17:43.733Z,377.71
2022-11-08T10:22:50.957Z,377.26
2022-11-08T10:27:58.183Z,377.29
2022-11-08T10:33:05.492Z,377.77
2022-11-08T10:38:12.786Z,378.53
2022-11-08T10:43:20.352Z,379.19
2022-11-08T10:48:27.159Z,379.48
2022-11-08T10:53:34.434Z,380.84
2022-11-08T10:58:41.676Z,381.68
2022-11-08T11:03:48.838Z,382.48
2022-11-08T11:08:56.069Z,382.83
2022-11-08T11:14:03.275Z,383.31
2022-11-08T11:19:10.505Z,383.68
2022-11-08T11:24:19.322Z,384.32
2022-11-08T11:29:25.082Z,384.82
2022-11-08T11:34:32.475Z,385.21
2022-11-08T11:39:39.742Z,385.52
2022-11-08T11:44:46.937Z,386.01
2022-11-08T11:49:54.168Z,386.58
2022-11-08T11:55:01.480Z,386.25
2022-11-08T12:00:08.712Z,386.17
2022-11-08T12:05:15.935Z,386.49
2022-11-08T12:10:23.224Z,386.57
2022-11-08T12:15:30.404Z,386.44
2022-11-08T12:20:37.609Z,386.99
2022-11-08T12:25:44.799Z,387.74
2022-11-08T12:30:52.029Z,388.01
2022-11-08T12:35:59.222Z,388.58
2022-11-08T12:41:06.513Z,389.44
2022-11-08T12:46:13.738Z,390.37
2022-11-08T12:51:20.956Z,391.12
2022-11-08T12:56:28.192Z,391.39
2022-11-08T13:01:35.459Z,392.43
2022-11-08T13:06:42.795Z,392.59
2022-11-08T13:11:50.050Z,393.05
2022-11-08T13:16:57.291Z,393.33
2022-11-08T13:22:04.567Z,393.67
2022-11-08T13:27:12.029Z,393.82
2022-11-08T13:32:19.524Z,394.18
2022-11-08T13:37:26.704Z,394.89
2022-11-08T13:42:34.334Z,395.37
2022-11-08T13:47:41.462Z,395.43
2022-11-08T13:52:48.768Z,395.83
2022-11-08T13:57:55.990Z,396.25
2022-11-08T14:03:03.145Z,396.64
2022-11-08T14:08:10.457Z,396.81
2022-11-08T14:13:18.197Z,397.48
2022-11-08T14:18:24.940Z,397.40
2022-11-08T14:23:32.123Z,397.28
2022-11-08T14:28:39.313Z,397.06
2022-11-08T14:33:46.464Z,397.06
2022-11-08T14:38:53.976Z,396.83
2022-11-08T14:44:01.303Z,397.32
2022-11-08T14:49:08.493Z,397.44
2022-11-08T14:54:15.747Z,397.46
2022-11-08T14:59:23.225Z,398.04
2022-11-08T15:04:30.537Z,397.67
2022-11-08T15:09:38.327Z,397.80
2022-11-08T15:14:45.849Z,397.01
2022-11-08T15:19:53.101Z,397.35
2022-11-08T15:25:01.485Z,397.86
2022-11-08T15:30:08.664Z,397.86
2022-11-08T15:35:16.115Z,398.25
2022-11-08T15:40:23.534Z,398.85
2022-11-08T15:45:30.711Z,398.78
2022-11-08T15:50:37.919Z,398.45
2022-11-08T15:55:45.418Z,398.72
2022-11-08T16:00:53.160Z,399.10
2022-11-08T16:06:00.772Z,399.56
2022-11-08T16:11:08.473Z,399.73
2022-11-08T16:16:16.108Z,399.83
2022-11-08T16:21:23.797Z,398.98
2022-11-08T16:26:31.346Z,398.59
2022-11-08T16:31:38.824Z,397.55
2022-11-08T16:36:45.890Z,396.72
2022-11-08T16:41:55.689Z,396.64
2022-11-08T16:47:03.223Z,396.93
2022-11-08T16:52:10.540Z,396.72
2022-11-08T16:57:34.318Z,397.64
2022-11-08T17:02:25.515Z,397.25
2022-11-08T17:07:32.626Z,397.34
2022-11-08T17:12:39.872Z,397.73
2022-11-08T17:17:47.155Z,397.71
2022-11-08T17:22:54.656Z,397.31
2022-11-08T17:28:02.317Z,397.81
2022-11-08T17:33:09.807Z,397.51
2022-11-08T17:38:20.164Z,396.64
2022-11-08T17:43:27.794Z,395.60
2022-11-08T17:48:35.457Z,394.62
2022-11-08T17:53:43.118Z,394.81
2022-11-08T17:58:50.419Z,395.31
2022-11-08T18:03:58.050Z,394.14
2022-11-08T18:09:05.698Z,393.69
2022-11-08T18:14:13.356Z,393.71
2022-11-08T18:19:22.023Z,393.61
2022-11-08T18:24:29.324Z,393.24
2022-11-08T18:29:36.825Z,393.65
2022-11-08T18:34:44.462Z,393.54
2022-11-08T18:39:52.052Z,392.96
2022-11-08T18:45:00.100Z,394.26
2022-11-08T18:50:07.909Z,394.01
2022-11-08T18:55:15.517Z,394.15
2022-11-08T19:00:23.322Z,394.37
2022-11-08T19:05:31.067Z,395.04
2022-11-08T19:10:38.380Z,395.59
2022-11-08T19:15:45.753Z,395.50
2022-11-08T19:20:53.546Z,396.50
2022-11-08T19:26:01.901Z,396.57
2022-11-08T19:31:10.299Z,396.31
2022-11-08T19:36:19.005Z,395.85
2022-11-08T19:41:26.700Z,396.07
2022-11-08T19:46:34.420Z,395.45
2022-11-08T19:51:42.048Z,395.43
2022-11-08T19:57:04.217Z,394.28
2022-11-08T20:01:58.546Z,394.64
2022-11-08T20:07:06.227Z,394.40
2022-11-08T20:12:13.922Z,395.44
2022-11-08T20:17:21.639Z,395.68
2022-11-08T20:22:29.267Z,395.52
2022-11-08T20:27:36.702Z,395.54
2022-11-08T20:32:44.268Z,395.15
2022-11-08T20:37:51.904Z,394.59
2022-11-08T20:42:59.606Z,394.65
2022-11-08T20:48:07.166Z,394.59
2022-11-08T20:53:15.039Z,394.70
2022-11-08T20:58:22.620Z,394.06
2022-11-08T21:03:30.103Z,394.11
2022-11-08T21:13:47.333Z,394.60
2022-11-08T21:18:54.948Z,394.07
2022-11-08T21:24:02.350Z,393.58
2022-11-08T21:29:10.078Z,393.24
2022-11-08T21:34:17.810Z,393.47
2022-11-08T21:39:25.888Z,394.87
2022-11-08T21:44:33.326Z,394.22
2022-11-08T21:49:40.724Z,395.14
2022-11-08T21:54:47.881Z,395.22
2022-11-08T21:59:55.010Z,396.11
2022-11-08T22:05:02.240Z,395.62
2022-11-08T22:11:58.644Z,395.25
2022-11-08T22:17:05.835Z,394.71
2022-11-08T22:22:13.061Z,395.18
2022-11-08T22:27:21.281Z,395.23
2022-11-08T22:32:28.579Z,395.26
2022-11-08T22:37:35.801Z,395.74
2022-11-08T22:42:43.064Z,396.89
2022-11-08T22:50:54.955Z,397.28
2022-11-08T22:56:06.958Z,397.39
2022-11-08T23:01:09.524Z,396.79
2022-11-08T23:06:16.727Z,396.60
2022-11-08T23:11:23.922Z,395.92
2022-11-08T23:16:31.181Z,394.67
2022-11-08T23:21:38.325Z,395.61
2022-11-08T23:26:45.508Z,395.86
2022-11-08T23:31:52.803Z,396.26
2022-11-08T23:36:59.944Z,397.41
2022-11-08T23:42:07.084Z,397.31
2022-11-08T23:47:14.243Z,397.61
2022-11-08T23:52:21.399Z,397.08
2022-11-08T23:57:28.570Z,397.15
